Date,TemperatureHighF,TemperatureAvgF,TemperatureLowF,DewpointHighF,DewpointAvgF,DewpointLowF,HumidityHigh,HumidityAvg,HumidityLow,PressureMaxIn,PressureMinIn,WindSpeedMaxMPH,WindSpeedAvgMPH,GustSpeedMaxMPH,PrecipitationSumIn
2013-1-2,79.0,75.3,71.0,70.0,68.5,67.0,90,80,70,30.08,30.00,4,1,11,0.00
2013-1-3,80.0,74.8,69.0,71.0,69.0,67.0,94,83,71,30.13,30.03,5,1,12,0.00
2013-1-4,79.0,73.5,67.0,73.0,69.7,66.0,96,88,76,30.23,30.11,2,0,9,0.00
2013-1-5,75.0,70.6,67.0,71.0,68.9,66.0,98,94,84,30.26,30.16,1,0,6,0.37
2013-1-6,81.0,75.1,66.0,74.0,70.6,65.0,98,86,76,30.20,30.07,4,1,12,0.01
2013-1-7,76.0,72.7,69.0,72.0,69.9,67.0,96,91,85,30.17,30.08,4,0,8,0.14
2013-1-8,74.0,73.7,73.0,72.0,70.7,70.0,94,90,87,30.12,30.10,4,2,11,0.14
2013-1-9,82.0,78.3,76.0,73.0,72.0,70.0,87,81,75,30.29,30.18,4,2,14,0.04
2013-1-10,77.0,76.2,76.0,71.0,70.3,70.0,84,83,82,30.28,30.27,3,3,11,0.00
2013-1-20,74.0,69.3,65.0,69.0,66.5,64.0,99,91,81,30.10,30.05,1,0,8,0.43
2013-1-21,70.0,67.8,67.0,68.0,66.6,66.0,97,96,92,30.06,30.02,1,0,6,0.25
2013-1-22,69.0,68.9,68.0,56.0,55.0,54.0,63,62,59,30.24,30.18,3,1,10,0.01
2013-1-23,74.0,68.4,61.0,60.0,56.5,53.0,83,67,53,30.30,30.20,4,1,18,0.01
2013-1-24,61.0,60.2,60.0,56.0,55.2,55.0,85,85,84,30.27,30.25,0,0,1,0.00
2013-1-25,76.0,70.0,62.0,62.0,59.1,53.0,82,69,55,30.27,30.18,1,0,7,0.00
2013-1-26,67.0,65.3,64.0,60.0,59.6,59.0,85,82,79,30.21,30.20,0,0,1,0.00
2013-1-28,80.0,76.7,74.0,68.0,66.7,65.0,79,71,64,30.32,30.23,4,2,10,0.00
2013-1-29,79.0,75.6,73.0,72.0,68.8,66.0,86,80,74,30.23,30.14,5,2,12,0.04
2013-1-30,76.0,73.4,72.0,70.0,68.3,66.0,90,84,77,30.14,29.98,6,2,14,0.00
2013-1-31,73.0,64.8,58.0,70.0,55.0,41.0,94,71,51,30.19,29.99,4,0,11,0.00
2013-2-1,73.0,62.3,53.0,57.0,49.8,40.0,77,64,54,30.27,30.16,3,0,11,0.00
2013-2-2,74.0,64.0,55.0,55.0,50.0,38.0,77,61,47,30.27,30.13,3,0,9,0.00
2013-2-3,75.0,63.6,56.0,54.0,51.6,42.0,88,68,33,30.17,30.08,2,0,7,0.00
2013-2-4,74.0,63.3,50.0,56.0,49.2,41.0,82,62,37,30.15,30.03,3,0,9,0.00
2013-2-5,77.0,65.6,56.0,65.0,59.1,53.0,91,80,62,30.07,30.01,2,0,10,0.00
2013-2-6,78.0,70.8,62.0,68.0,63.9,61.0,96,80,64,30.11,30.03,2,0,10,0.00
2013-2-7,79.0,74.5,70.0,70.0,66.2,64.0,81,75,69,30.09,29.94,3,1,10,0.00
2013-2-8,83.0,75.9,70.0,71.0,67.2,61.0,92,75,55,30.03,29.91,7,2,13,0.00
2013-2-9,79.0,72.8,68.0,68.0,64.4,61.0,92,75,64,30.18,30.03,6,2,14,0.00
2013-2-10,74.0,71.4,70.0,65.0,62.7,61.0,81,74,70,30.27,30.16,6,2,16,0.00
2013-2-11,74.0,72.6,71.0,67.0,64.9,62.0,81,77,72,30.20,30.11,3,1,12,0.00
2013-2-12,75.0,73.8,72.0,71.0,69.0,66.0,90,85,78,30.13,29.98,4,1,14,0.00
2013-2-13,81.0,75.7,70.0,75.0,71.1,68.0,96,86,77,30.02,29.90,7,2,21,0.00
2013-2-14,77.0,70.3,63.0,72.0,68.1,62.0,97,93,83,30.01,29.86,7,0,18,1.82
2013-2-15,66.0,64.9,63.0,65.0,63.9,62.0,98,97,96,30.00,29.96,1,0,7,1.85
2013-2-16,73.0,67.7,63.0,64.0,59.7,50.0,97,78,49,29.95,29.89,9,3,23,0.04
2013-2-17,53.0,53.0,53.0,43.0,41.8,40.0,69,66,62,30.09,30.09,2,1,9,0.01
2013-2-18,67.0,66.9,66.0,57.0,55.5,53.0,71,67,61,30.24,30.23,4,2,10,0.00
2013-2-26,82.0,79.4,77.0,75.0,73.1,71.0,86,81,75,29.90,29.87,7,4,21,0.00
2013-2-27,77.0,70.2,63.0,74.0,66.0,62.0,97,87,65,29.97,29.87,6,1,11,0.84
2013-2-28,70.0,64.0,59.0,64.0,53.9,46.0,97,71,43,30.01,29.91,4,0,9,0.39
2013-3-1,63.0,63.0,63.0,57.0,56.6,56.0,81,79,77,29.94,29.92,0,0,2,0.00
2013-3-5,74.0,64.1,51.0,59.0,53.8,44.0,83,70,55,30.19,30.09,5,1,12,0.00
2013-3-6,77.0,64.9,54.0,59.0,46.3,35.0,90,55,28,30.10,29.95,11,3,22,0.00
2013-3-7,70.0,63.3,51.0,56.0,50.3,39.0,88,64,41,30.19,30.10,3,0,9,0.00
2013-3-8,73.0,65.6,56.0,55.0,52.6,48.0,89,64,44,30.21,30.11,2,0,9,0.00
2013-3-9,75.0,65.5,56.0,59.0,54.4,49.0,86,68,53,30.19,30.11,2,0,11,0.00
2013-3-10,70.0,68.6,67.0,62.0,57.4,54.0,75,68,60,30.18,30.09,4,2,13,0.00
2013-3-11,78.0,73.4,69.0,64.0,62.1,60.0,77,68,57,30.12,29.97,5,2,15,0.00
2013-3-12,78.0,74.4,72.0,70.0,66.5,64.0,81,76,71,30.00,29.91,6,2,14,0.00
2013-3-13,72.0,66.7,61.0,56.0,52.9,46.0,76,62,43,30.12,30.05,1,0,6,0.00
2013-3-14,61.0,58.2,57.0,53.0,50.3,49.0,78,75,71,30.20,30.12,0,0,4,0.00
2013-3-15,73.0,62.5,53.0,57.0,51.7,45.0,80,68,53,30.25,30.16,2,0,8,0.00
2013-3-16,75.0,69.8,59.0,57.0,55.2,53.0,83,61,49,30.20,30.10,3,1,11,0.00
2013-3-17,76.0,71.7,62.0,62.0,59.8,55.0,80,66,59,30.16,30.04,4,1,12,0.00
2013-3-21,63.0,61.4,60.0,53.0,52.2,51.0,76,72,68,29.99,29.93,0,0,0,0.00
2013-3-22,77.0,68.1,56.0,71.0,59.8,52.0,91,76,60,30.02,29.91,3,1,11,0.02
2013-3-23,83.0,77.1,72.0,76.0,73.2,70.0,96,88,76,30.00,29.81,7,2,18,0.02
2013-3-24,88.0,81.1,73.0,75.0,71.9,67.0,95,75,56,29.91,29.69,15,7,30,0.00
2013-3-25,81.0,74.3,66.0,73.0,57.3,36.0,95,60,31,29.99,29.75,8,2,14,0.03
2013-3-26,70.0,63.4,54.0,44.0,36.8,31.0,46,38,26,30.21,29.98,9,2,20,0.00
2013-3-27,67.0,57.1,46.0,49.0,42.0,32.0,72,58,42,30.26,30.17,2,0,10,0.00
2013-3-28,71.0,64.7,54.0,53.0,46.2,34.0,76,52,30,30.27,30.18,2,0,10,0.00
2013-3-29,72.0,64.9,58.0,55.0,50.6,45.0,65,60,50,30.29,30.22,2,0,10,0.00
2013-3-30,75.0,69.6,65.0,57.0,53.5,51.0,66,57,43,30.27,30.17,3,0,11,0.00
2013-3-31,80.0,73.4,68.0,68.0,62.0,-99.9,81,70,60,30.20,30.06,5,2,16,0.00
2013-4-1,87.0,78.7,72.0,73.0,66.9,62.0,88,69,43,30.06,29.95,9,4,21,0.20
2013-4-2,75.0,75.0,75.0,69.0,68.3,68.0,82,80,79,30.08,30.07,2,1,9,0.00
2013-4-3,76.0,74.6,73.0,71.0,69.0,68.0,85,83,81,30.07,30.02,2,0,10,0.00
2013-4-4,75.0,73.8,72.0,71.0,70.8,70.0,95,91,86,30.06,29.93,2,0,8,0.88
2013-4-5,74.0,69.2,66.0,72.0,66.9,64.0,96,92,86,29.98,29.83,7,3,16,1.45
2013-4-6,77.0,71.6,64.0,67.0,64.0,61.0,95,78,65,30.09,29.92,4,0,12,0.01
2013-4-7,73.0,72.2,72.0,65.0,64.2,64.0,76,76,75,30.09,30.06,5,3,13,0.01
2013-4-11,83.0,78.3,76.0,75.0,72.6,71.0,87,83,75,30.03,29.92,6,2,15,0.00
2013-4-12,86.0,81.2,78.0,78.0,76.2,74.0,91,85,77,29.95,29.88,8,4,23,0.00
2013-4-13,78.0,74.6,72.0,75.0,72.4,70.0,95,93,91,29.97,29.94,1,0,5,0.85
2013-4-14,85.0,79.2,72.0,78.0,75.1,70.0,97,88,75,29.98,29.91,4,1,14,0.23
2013-4-15,86.0,78.8,71.0,78.0,74.2,69.0,97,86,69,30.06,29.94,5,1,13,0.90
2013-4-16,79.0,73.4,72.0,78.0,72.6,71.0,99,98,96,30.10,30.03,1,0,5,0.91
2013-4-17,77.0,77.0,77.0,72.0,72.0,72.0,84,84,84,30.11,30.11,1,1,6,0.00
2013-4-18,81.0,79.5,79.0,73.0,73.0,73.0,83,81,76,30.05,30.02,3,2,14,0.00
2013-4-19,86.0,81.4,78.0,77.0,73.9,71.0,87,79,69,30.06,29.96,6,3,19,0.03
2013-4-20,86.0,78.0,73.0,78.0,74.2,70.0,97,88,76,30.04,29.97,7,1,19,0.25
2013-4-21,84.0,79.9,78.0,75.0,73.1,72.0,85,80,73,30.10,29.99,5,1,10,0.01
2013-4-22,83.0,76.4,72.0,74.0,70.7,68.0,93,83,69,30.05,29.94,4,0,10,0.26
2013-4-23,82.0,78.2,71.0,70.0,67.0,63.0,92,69,62,30.10,30.01,4,1,13,0.00
2013-4-24,80.0,75.7,74.0,67.0,64.1,62.0,75,67,60,30.14,30.04,3,1,10,0.00
2013-4-25,77.0,75.1,74.0,64.0,63.4,63.0,70,67,65,30.20,30.13,2,1,8,0.00
2013-4-26,82.0,78.2,74.0,68.0,66.4,63.0,76,67,60,30.23,30.17,5,1,11,0.00
2013-4-27,82.0,78.2,75.0,68.0,66.2,63.0,77,67,57,30.22,30.09,5,2,13,0.00
2013-4-28,82.0,77.4,74.0,67.0,63.8,-99.9,73,66,53,30.13,30.01,5,2,15,0.00
2013-4-29,84.0,78.1,75.0,73.0,68.9,64.0,83,74,63,30.05,29.94,5,2,14,0.00
2013-4-30,78.0,76.5,73.0,73.0,70.7,69.0,90,82,76,29.99,29.95,4,0,12,0.01
2013-5-1,73.0,72.5,72.0,70.0,69.5,69.0,91,91,91,29.99,29.99,0,0,0,0.01
2013-5-2,74.0,70.9,69.0,71.0,69.3,67.0,97,95,88,29.91,29.81,7,3,20,3.84
2013-5-3,74.0,74.0,74.0,71.0,70.5,70.0,89,89,88,29.82,29.80,5,3,13,3.82
2013-5-4,71.0,70.2,70.0,69.0,68.2,68.0,95,95,94,29.74,29.70,0,0,1,1.51
2013-6-22,85.0,83.5,83.0,76.0,75.3,74.0,79,76,72,30.07,30.05,2,1,9,0.00
2013-6-23,84.0,82.5,82.0,75.0,74.2,74.0,78,77,74,30.14,30.11,2,0,8,0.00
2013-6-24,86.0,82.7,81.0,75.0,74.3,74.0,80,77,71,30.16,30.11,3,1,9,0.00
2013-6-25,86.0,86.0,86.0,77.0,77.0,77.0,75,75,75,30.11,30.11,0,0,10,0.00
2013-6-26,87.0,87.0,87.0,77.0,77.0,77.0,72,72,72,30.06,30.06,3,3,8,0.00
2013-6-27,83.0,81.2,79.0,76.0,75.4,74.0,86,83,79,30.03,29.96,2,0,7,0.23
2013-6-28,80.0,80.0,80.0,76.0,76.0,76.0,87,87,87,30.01,30.00,0,0,0,0.23
2013-6-29,90.0,88.6,85.0,79.0,77.2,74.0,71,70,67,29.88,29.82,6,4,18,0.24
2013-7-1,84.0,80.7,78.0,78.0,75.2,74.0,89,84,79,30.04,29.97,4,1,12,0.07
2013-7-2,88.0,83.6,77.0,80.0,77.4,74.0,92,82,75,30.07,30.02,4,1,12,0.14
2013-7-3,89.0,83.3,79.0,80.0,77.0,74.0,89,82,72,30.13,30.07,5,2,14,0.31
2013-7-4,82.0,82.0,82.0,76.0,76.0,76.0,83,82,81,30.13,30.10,3,1,10,0.31
2013-7-5,85.0,81.8,81.0,78.0,76.6,75.0,87,84,80,30.13,30.11,3,1,11,0.14
2013-7-6,89.0,86.5,82.0,78.0,76.8,76.0,82,73,67,30.11,30.08,3,2,14,0.03
2013-7-7,85.0,84.8,84.0,77.0,76.8,76.0,77,76,76,30.10,30.09,2,0,11,0.03
2013-7-8,82.0,82.0,82.0,75.0,75.0,75.0,80,80,80,30.12,30.12,0,0,6,0.00
2013-7-14,74.0,74.0,74.0,72.0,72.0,72.0,95,95,95,30.10,30.10,0,0,1,0.00
2013-7-15,86.0,78.3,74.0,79.0,75.4,73.0,98,92,76,30.09,30.06,0,0,6,1.96
2013-7-16,78.0,78.0,78.0,73.0,73.0,73.0,85,84,84,30.14,30.13,1,0,5,0.43
2013-7-17,79.0,78.9,78.0,74.0,73.1,73.0,84,83,82,30.14,30.11,1,0,6,0.26
2013-7-18,84.0,78.5,74.0,78.0,75.0,72.0,96,90,80,30.16,30.08,2,0,9,0.92
2013-7-19,84.0,80.0,74.0,79.0,76.5,73.0,96,89,83,30.14,30.07,1,0,8,0.59
2013-7-20,88.0,85.1,82.0,81.0,79.0,78.0,88,82,76,30.13,30.09,5,2,12,0.00
2013-7-21,75.0,75.0,75.0,73.0,73.0,73.0,93,93,93,30.15,30.15,0,0,0,0.94
2013-7-22,76.0,75.7,75.0,74.0,73.7,73.0,95,95,94,30.15,30.14,0,0,0,0.94
2013-7-23,85.0,85.0,85.0,78.0,78.0,78.0,80,80,80,30.09,30.09,1,1,6,0.00
2013-7-24,95.0,89.0,82.0,80.0,71.8,67.0,72,58,47,29.97,29.92,6,2,12,0.00
2013-7-25,92.0,84.5,79.0,77.0,75.0,71.0,84,73,59,30.01,29.96,6,1,11,0.00
2013-7-26,84.0,82.8,82.0,77.0,76.1,75.0,83,80,76,30.02,30.01,9,4,16,0.00
2013-7-27,80.0,80.0,80.0,76.0,76.0,76.0,89,89,88,30.00,29.98,1,0,6,0.04
2013-7-28,86.0,80.4,74.0,79.0,76.2,72.0,96,87,80,30.07,30.01,5,0,13,2.38
2013-7-29,86.0,82.8,80.0,78.0,77.0,76.0,88,83,77,30.14,30.04,1,0,7,0.00
2013-7-30,85.0,83.7,82.0,80.0,78.7,77.0,86,86,85,30.14,30.11,0,0,2,0.00
2013-7-31,91.0,87.0,83.0,80.0,78.1,77.0,85,75,66,30.13,30.09,3,1,9,0.00
2013-8-6,91.0,84.8,76.0,81.0,77.3,74.0,96,79,68,29.98,29.90,5,0,10,0.01
2013-8-7,80.0,79.3,78.0,77.0,75.2,74.0,90,88,85,29.95,29.92,0,0,1,0.01
2013-8-9,87.0,86.2,84.0,78.0,77.3,77.0,79,75,73,30.02,29.99,2,1,8,0.00
2013-8-12,91.0,84.9,81.0,79.0,75.9,73.0,83,75,65,30.12,30.03,1,0,10,0.00
2013-8-14,92.0,80.9,82.0,78.0,64.2,-99.9,83,69,64,30.03,29.94,4,1,10,0.00
2013-8-15,87.0,73.9,75.0,79.0,58.0,-99.9,97,79,73,30.07,29.97,4,0,13,2.87
2013-8-16,91.0,82.5,79.0,81.0,73.7,-99.9,92,81,70,30.06,29.99,2,0,11,0.03
2013-8-17,91.0,85.8,83.0,81.0,79.1,77.0,87,81,69,30.09,30.01,3,0,10,0.00
2013-8-18,90.0,84.1,82.0,80.0,75.6,-99.9,84,78,67,30.09,30.01,4,1,11,0.00
2013-8-19,91.0,80.7,82.0,80.0,62.6,-99.9,86,77,66,30.09,29.98,3,1,11,0.00
2013-8-20,91.0,84.4,81.0,79.0,74.5,-99.9,85,76,64,30.06,29.98,4,1,10,0.00
2013-8-21,89.0,84.9,83.0,81.0,78.7,78.0,87,82,76,30.07,30.01,4,1,10,0.11
2013-8-22,91.0,85.9,82.0,81.0,78.5,76.0,87,79,70,30.07,29.97,3,1,11,0.02
2013-8-25,88.0,82.4,77.0,78.0,75.9,73.0,90,81,70,30.15,30.03,2,0,8,0.00
2013-8-26,82.0,81.2,80.0,76.0,73.9,72.0,83,80,78,30.13,30.09,0,0,9,0.00
2013-8-27,83.0,80.5,76.0,78.0,74.8,71.0,95,84,70,30.06,29.99,1,0,5,0.59
2013-8-28,88.0,84.8,79.0,78.0,76.0,72.0,83,75,66,30.03,29.96,4,1,13,0.02
2013-8-29,91.0,82.6,75.0,79.0,75.9,70.0,93,81,68,30.03,29.93,2,0,8,0.02
2013-8-30,82.0,82.0,82.0,76.0,76.0,76.0,83,83,83,29.98,29.98,0,0,6,0.00
2013-8-31,82.0,81.5,81.0,75.0,74.9,74.0,81,80,78,29.96,29.94,3,1,8,0.00
2013-9-1,89.0,84.6,80.0,80.0,77.3,75.0,86,79,73,30.01,29.94,2,0,10,0.00
2013-9-2,92.0,81.9,76.0,80.0,76.4,74.0,95,85,66,30.03,29.95,2,0,6,0.00
2013-9-5,83.0,82.8,82.0,78.0,77.8,77.0,86,85,85,30.02,30.00,1,0,6,0.00
2013-9-6,91.0,86.6,82.0,82.0,78.4,76.0,89,77,66,30.04,29.94,1,0,7,0.14
2013-9-7,88.0,80.1,76.0,78.0,75.2,71.0,93,85,73,29.98,29.91,3,0,9,0.09
2013-9-9,82.0,76.8,74.0,77.0,73.3,71.0,91,89,84,30.01,29.94,0,0,6,1.55
2013-9-10,87.0,82.1,78.0,78.0,75.9,74.0,90,82,73,30.05,29.96,2,0,8,0.44
2013-9-11,83.0,82.6,82.0,77.0,76.2,75.0,82,81,80,30.03,30.02,2,0,6,0.00
2013-10-27,77.0,76.3,76.0,65.0,64.3,64.0,67,66,66,30.09,30.07,1,0,7,0.00
2013-10-28,85.0,79.2,75.0,69.0,65.8,63.0,72,64,49,30.15,30.05,0,0,6,0.00
2013-10-29,84.0,80.1,79.0,69.0,68.0,66.0,71,67,58,30.17,30.10,4,1,13,0.00
2013-10-30,84.0,79.9,77.0,71.0,68.2,66.0,73,68,60,30.19,30.10,4,1,12,0.00
2013-11-1,87.0,81.9,79.0,77.0,74.1,72.0,83,78,70,30.01,29.89,4,1,11,0.00
2013-11-3,81.0,78.3,76.0,67.0,64.5,62.0,70,63,57,30.03,29.95,2,1,11,0.00
2013-11-4,81.0,77.0,73.0,70.0,65.1,59.0,84,67,54,30.08,30.01,5,2,15,0.08
2013-11-5,82.0,78.8,77.0,72.0,69.8,66.0,81,74,67,30.10,30.02,6,4,20,0.06
2013-11-6,84.0,79.6,77.0,71.0,70.0,68.0,79,73,61,30.07,30.00,5,2,22,0.00
2013-11-7,85.0,77.3,71.0,74.0,70.8,68.0,94,81,66,30.01,29.93,0,0,4,0.00
2013-11-8,84.0,77.1,71.0,74.0,71.1,68.0,94,83,64,30.04,29.94,4,1,14,0.44
2013-11-9,78.0,75.7,73.0,73.0,69.5,-99.9,94,84,80,30.12,30.02,7,2,22,0.14
2013-11-10,83.0,78.9,76.0,74.0,71.5,69.0,86,78,72,30.12,30.05,4,1,11,0.01
2013-11-11,84.0,78.8,76.0,73.0,69.8,66.0,81,74,68,30.13,30.05,2,0,9,0.00
2013-11-12,84.0,78.7,75.0,71.0,69.2,67.0,82,73,62,30.09,29.97,1,0,6,0.00
2013-11-13,77.0,72.7,70.0,68.0,64.5,57.0,90,76,64,30.22,29.99,4,1,12,0.09
2013-11-14,77.0,72.8,70.0,63.0,59.8,56.0,69,64,58,30.24,30.15,6,3,18,0.01
2013-11-15,82.0,77.0,74.0,71.0,67.6,63.0,77,73,68,30.15,30.04,5,2,18,0.00
2013-11-16,80.0,77.0,76.0,74.0,68.8,-99.9,91,79,71,30.10,30.03,4,1,11,0.19
2013-11-17,84.0,80.0,78.0,75.0,72.2,70.0,87,78,69,30.08,30.01,3,1,9,0.01
2013-11-18,85.0,78.7,73.0,75.0,72.3,70.0,92,81,72,30.03,29.93,3,0,9,0.00
2013-11-19,84.0,76.0,73.0,75.0,72.3,70.0,95,88,72,29.93,29.86,2,0,6,2.97
2013-11-20,78.0,77.2,77.0,73.0,72.7,72.0,88,86,84,30.06,30.05,1,0,6,0.02
2013-11-21,78.0,76.0,75.0,73.0,72.8,72.0,93,90,83,30.09,30.06,4,2,12,1.38
2013-11-23,83.0,76.9,74.0,73.0,68.7,-99.9,86,78,72,30.09,29.98,4,0,10,0.01
2013-11-24,81.0,74.0,69.0,71.0,68.5,66.0,94,83,65,30.09,29.98,1,0,7,0.72
2013-11-25,75.0,74.4,74.0,70.0,69.0,68.0,84,84,83,30.09,30.07,6,4,16,0.00
2013-11-26,83.0,77.8,74.0,76.0,73.1,69.0,91,86,79,30.06,29.84,6,4,18,0.10
2013-11-27,64.0,60.9,58.0,56.0,53.9,52.0,80,78,76,30.11,30.06,1,0,7,1.18
2013-11-28,74.0,60.1,49.0,61.0,52.5,46.0,90,77,55,30.23,30.11,2,0,9,0.01
2013-12-14,82.0,77.3,75.0,74.0,69.5,-99.9,86,79,74,30.12,30.00,4,2,14,0.00
2013-12-15,83.0,77.4,72.0,76.0,72.4,69.0,94,85,74,30.06,29.93,7,3,21,0.00
2013-12-16,76.0,68.5,62.0,68.0,61.9,59.0,89,80,66,30.15,30.03,0,0,6,0.00
2013-12-17,77.0,67.4,59.0,65.0,59.9,57.0,95,78,59,30.18,30.11,1,0,6,0.00
2013-12-18,76.0,66.9,60.0,61.0,58.4,56.0,93,75,55,30.24,30.14,1,0,8,0.00
2013-12-19,74.0,65.8,63.0,65.0,59.0,57.0,82,80,74,30.23,30.18,0,0,5,0.00
2013-12-20,82.0,77.3,74.0,71.0,68.1,63.0,79,73,68,30.19,30.11,2,1,10,0.00
2013-12-21,83.0,77.8,77.0,74.0,69.7,-99.9,86,79,73,30.16,30.07,4,2,13,0.00
2013-12-22,84.0,79.6,77.0,75.0,73.1,71.0,87,81,72,30.16,30.09,5,2,16,0.00
2013-12-23,84.0,78.8,73.0,76.0,73.1,69.0,90,83,74,30.18,30.12,5,2,15,0.00
2013-12-24,83.0,73.2,69.0,74.0,68.6,64.0,97,86,68,30.17,30.09,4,1,9,0.00
2013-12-25,77.0,73.6,71.0,68.0,65.9,64.0,81,77,71,30.18,30.11,4,1,14,0.00
2014-1-2,87.0,80.3,74.0,73.0,69.3,66.0,89,70,52,30.02,29.87,9,4,16,0.00